sensor_id;sensor_type;location;lat;lon;timestamp;pressure;altitude;pressure_sealevel;temperature;humidity
36284;BME280;56085;48.910;9.478;2023-03-15T00:00:45;97723.13;;;0.85;89.16
36284;BME280;56085;48.910;9.478;2023-03-15T00:03:11;97729.84;;;0.87;88.95
36284;BME280;56085;48.910;9.478;2023-03-15T00:05:40;97741.38;;;0.84;89.56
36284;BME280;56085;48.910;9.478;2023-03-15T00:08:06;97744.53;;;0.78;89.50
36284;BME280;56085;48.910;9.478;2023-03-15T00:10:31;97753.69;;;0.82;89.96
36284;BME280;56085;48.910;9.478;2023-03-15T00:12:56;97751.78;;;0.82;89.46
36284;BME280;56085;48.910;9.478;2023-03-15T00:15:21;97755.13;;;0.79;90.26
36284;BME280;56085;48.910;9.478;2023-03-15T00:17:47;97767.41;;;0.77;90.33
36284;BME280;56085;48.910;9.478;2023-03-15T00:20:12;97778.00;;;0.78;90.32
36284;BME280;56085;48.910;9.478;2023-03-15T00:22:39;97778.78;;;0.79;90.85
36284;BME280;56085;48.910;9.478;2023-03-15T00:25:04;97780.22;;;0.76;90.32
36284;BME280;56085;48.910;9.478;2023-03-15T00:27:29;97783.13;;;0.80;90.37
36284;BME280;56085;48.910;9.478;2023-03-15T00:29:55;97791.13;;;0.76;90.89
36284;BME280;56085;48.910;9.478;2023-03-15T00:32:20;97809.53;;;0.79;90.98
36284;BME280;56085;48.910;9.478;2023-03-15T00:34:45;97803.41;;;0.74;91.29
36284;BME280;56085;48.910;9.478;2023-03-15T00:37:13;97812.19;;;0.71;91.60
36284;BME280;56085;48.910;9.478;2023-03-15T00:39:40;97812.19;;;0.71;91.12
36284;BME280;56085;48.910;9.478;2023-03-15T00:42:05;97825.28;;;0.68;91.70
36284;BME280;56085;48.910;9.478;2023-03-15T00:44:31;97820.34;;;0.71;91.46
36284;BME280;56085;48.910;9.478;2023-03-15T00:46:56;97824.63;;;0.63;91.60
36284;BME280;56085;48.910;9.478;2023-03-15T00:49:21;97823.63;;;0.59;92.12
36284;BME280;56085;48.910;9.478;2023-03-15T00:51:46;97828.56;;;0.57;92.11
36284;BME280;56085;48.910;9.478;2023-03-15T00:54:11;97836.41;;;0.58;91.92
36284;BME280;56085;48.910;9.478;2023-03-15T00:56:39;97840.34;;;0.52;91.88
36284;BME280;56085;48.910;9.478;2023-03-15T00:59:05;97851.84;;;0.49;92.55
36284;BME280;56085;48.910;9.478;2023-03-15T01:01:30;97852.66;;;0.49;92.39
36284;BME280;56085;48.910;9.478;2023-03-15T01:03:55;97857.69;;;0.42;93.13
36284;BME280;56085;48.910;9.478;2023-03-15T01:06:22;97856.91;;;0.42;92.96
36284;BME280;56085;48.910;9.478;2023-03-15T01:08:48;97858.63;;;0.38;92.64
36284;BME280;56085;48.910;9.478;2023-03-15T01:11:14;97870.09;;;0.34;93.20
36284;BME280;56085;48.910;9.478;2023-03-15T01:13:40;97872.34;;;0.32;93.35
36284;BME280;56085;48.910;9.478;2023-03-15T01:16:05;97875.53;;;0.34;92.81
36284;BME280;56085;48.910;9.478;2023-03-15T01:18:31;97876.16;;;0.31;93.68
36284;BME280;56085;48.910;9.478;2023-03-15T01:20:57;97878.19;;;0.26;93.26
36284;BME280;56085;48.910;9.478;2023-03-15T01:23:23;97884.72;;;0.25;93.50
36284;BME280;56085;48.910;9.478;2023-03-15T01:25:48;97887.25;;;0.21;93.69
36284;BME280;56085;48.910;9.478;2023-03-15T01:28:13;97898.44;;;0.20;94.17
36284;BME280;56085;48.910;9.478;2023-03-15T01:30:38;97891.06;;;0.20;93.81
36284;BME280;56085;48.910;9.478;2023-03-15T01:33:03;97890.75;;;0.22;94.34
36284;BME280;56085;48.910;9.478;2023-03-15T01:35:29;97893.78;;;0.20;93.85
36284;BME280;56085;48.910;9.478;2023-03-15T01:37:54;97898.44;;;0.20;94.24
36284;BME280;56085;48.910;9.478;2023-03-15T01:40:19;97897.31;;;0.21;94.19
36284;BME280;56085;48.910;9.478;2023-03-15T01:48:13;97892.56;;;0.26;94.61
36284;BME280;56085;48.910;9.478;2023-03-15T01:50:38;97900.94;;;0.30;94.81
36284;BME280;56085;48.910;9.478;2023-03-15T01:53:04;97905.59;;;0.29;95.19
36284;BME280;56085;48.910;9.478;2023-03-15T01:55:29;97904.97;;;0.32;94.66
36284;BME280;56085;48.910;9.478;2023-03-15T01:57:56;97907.56;;;0.38;94.87
36284;BME280;56085;48.910;9.478;2023-03-15T02:00:23;97918.38;;;0.43;94.76
36284;BME280;56085;48.910;9.478;2023-03-15T02:05:17;97926.91;;;0.50;95.26
36284;BME280;56085;48.910;9.478;2023-03-15T02:07:44;97936.88;;;0.55;94.76
36284;BME280;56085;48.910;9.478;2023-03-15T02:10:16;97934.88;;;0.60;94.93
36284;BME280;56085;48.910;9.478;2023-03-15T02:12:44;97933.47;;;0.63;95.37
36284;BME280;56085;48.910;9.478;2023-03-15T02:15:10;97936.47;;;0.61;95.49
36284;BME280;56085;48.910;9.478;2023-03-15T02:17:37;97944.63;;;0.61;95.13
36284;BME280;56085;48.910;9.478;2023-03-15T02:20:06;97937.88;;;0.59;95.42
36284;BME280;56085;48.910;9.478;2023-03-15T02:25:11;97945.53;;;0.57;94.64
36284;BME280;56085;48.910;9.478;2023-03-15T02:27:40;97947.47;;;0.56;94.66
36284;BME280;56085;48.910;9.478;2023-03-15T02:30:05;97947.47;;;0.56;95.42
36284;BME280;56085;48.910;9.478;2023-03-15T02:32:31;97946.06;;;0.45;94.96
36284;BME280;56085;48.910;9.478;2023-03-15T02:34:56;97945.16;;;0.36;95.11
36284;BME280;56085;48.910;9.478;2023-03-15T02:37:21;97950.50;;;0.27;94.60
36284;BME280;56085;48.910;9.478;2023-03-15T02:39:46;97950.88;;;0.20;95.52
36284;BME280;56085;48.910;9.478;2023-03-15T02:42:12;97951.59;;;0.12;95.33
36284;BME280;56085;48.910;9.478;2023-03-15T02:44:38;97956.31;;;0.06;95.33
36284;BME280;56085;48.910;9.478;2023-03-15T02:47:05;97961.84;;;0.01;94.60
36284;BME280;56085;48.910;9.478;2023-03-15T02:49:31;97967.09;;;-0.03;95.41
36284;BME280;56085;48.910;9.478;2023-03-15T02:51:59;97972.81;;;-0.04;94.66
36284;BME280;56085;48.910;9.478;2023-03-15T02:54:24;97976.94;;;-0.07;95.35
36284;BME280;56085;48.910;9.478;2023-03-15T02:56:49;97979.97;;;-0.08;95.63
36284;BME280;56085;48.910;9.478;2023-03-15T02:59:15;97983.78;;;-0.09;95.72
36284;BME280;56085;48.910;9.478;2023-03-15T03:01:40;97986.78;;;-0.11;95.06
36284;BME280;56085;48.910;9.478;2023-03-15T03:04:06;97998.25;;;-0.14;95.03
36284;BME280;56085;48.910;9.478;2023-03-15T03:06:31;97995.25;;;-0.12;95.67
36284;BME280;56085;48.910;9.478;2023-03-15T03:08:56;98004.41;;;-0.08;95.22
36284;BME280;56085;48.910;9.478;2023-03-15T03:11:21;98017.72;;;-0.07;95.47
36284;BME280;56085;48.910;9.478;2023-03-15T03:13:46;98022.03;;;-0.06;95.91
36284;BME280;56085;48.910;9.478;2023-03-15T03:16:12;98029.31;;;-0.01;95.50
36284;BME280;56085;48.910;9.478;2023-03-15T03:18:38;98034.72;;;-0.01;95.90
36284;BME280;56085;48.910;9.478;2023-03-15T03:21:04;98029.78;;;0.01;95.51
36284;BME280;56085;48.910;9.478;2023-03-15T03:23:30;98038.56;;;-0.02;95.36
36284;BME280;56085;48.910;9.478;2023-03-15T03:25:55;98043.38;;;0.01;95.73
36284;BME280;56085;48.910;9.478;2023-03-15T03:28:25;98046.03;;;0.06;95.44
36284;BME280;56085;48.910;9.478;2023-03-15T03:30:51;98057.81;;;0.15;95.79
36284;BME280;56085;48.910;9.478;2023-03-15T03:33:16;98062.38;;;0.20;95.82
36284;BME280;56085;48.910;9.478;2023-03-15T03:35:41;98055.34;;;0.19;96.12
36284;BME280;56085;48.910;9.478;2023-03-15T03:38:10;98064.34;;;0.14;95.30
36284;BME280;56085;48.910;9.478;2023-03-15T03:40:35;98064.22;;;0.06;95.29
36284;BME280;56085;48.910;9.478;2023-03-15T03:43:00;98059.50;;;-0.03;95.38
36284;BME280;56085;48.910;9.478;2023-03-15T03:45:26;98061.69;;;-0.05;95.63
36284;BME280;56085;48.910;9.478;2023-03-15T03:47:51;98075.38;;;-0.10;95.52
36284;BME280;56085;48.910;9.478;2023-03-15T03:50:16;98073.75;;;-0.11;95.64
36284;BME280;56085;48.910;9.478;2023-03-15T03:52:42;98086.31;;;-0.15;95.51
36284;BME280;56085;48.910;9.478;2023-03-15T03:55:08;98077.38;;;-0.15;94.85
36284;BME280;56085;48.910;9.478;2023-03-15T03:57:33;98089.31;;;-0.16;95.45
36284;BME280;56085;48.910;9.478;2023-03-15T03:59:58;98095.88;;;-0.17;94.92
36284;BME280;56085;48.910;9.478;2023-03-15T04:02:23;98097.56;;;-0.22;95.07
36284;BME280;56085;48.910;9.478;2023-03-15T04:04:49;98103.91;;;-0.26;95.27
36284;BME280;56085;48.910;9.478;2023-03-15T04:07:14;98108.31;;;-0.30;95.00
36284;BME280;56085;48.910;9.478;2023-03-15T04:09:40;98109.44;;;-0.37;94.74
36284;BME280;56085;48.910;9.478;2023-03-15T04:12:05;98116.00;;;-0.38;94.80
36284;BME280;56085;48.910;9.478;2023-03-15T04:14:31;98120.13;;;-0.40;94.98
36284;BME280;56085;48.910;9.478;2023-03-15T04:16:56;98119.91;;;-0.44;94.61
36284;BME280;56085;48.910;9.478;2023-03-15T04:19:21;98120.72;;;-0.43;94.84
36284;BME280;56085;48.910;9.478;2023-03-15T04:21:47;98120.47;;;-0.47;95.37
36284;BME280;56085;48.910;9.478;2023-03-15T04:24:12;98127.03;;;-0.48;94.80
36284;BME280;56085;48.910;9.478;2023-03-15T04:26:38;98128.63;;;-0.47;94.84
36284;BME280;56085;48.910;9.478;2023-03-15T04:29:03;98128.91;;;-0.48;94.67
36284;BME280;56085;48.910;9.478;2023-03-15T04:31:29;98139.56;;;-0.52;94.75
36284;BME280;56085;48.910;9.478;2023-03-15T04:34:01;98137.94;;;-0.53;94.94
36284;BME280;56085;48.910;9.478;2023-03-15T04:36:26;98139.91;;;-0.59;95.19
36284;BME280;56085;48.910;9.478;2023-03-15T04:38:52;98146.97;;;-0.58;94.78
36284;BME280;56085;48.910;9.478;2023-03-15T04:41:27;98139.41;;;-0.61;95.38
36284;BME280;56085;48.910;9.478;2023-03-15T04:43:52;98152.44;;;-0.63;94.88
36284;BME280;56085;48.910;9.478;2023-03-15T04:46:17;98157.66;;;-0.66;95.15
36284;BME280;56085;48.910;9.478;2023-03-15T04:48:42;98155.25;;;-0.68;94.57
36284;BME280;56085;48.910;9.478;2023-03-15T04:51:07;98159.06;;;-0.69;95.14
36284;BME280;56085;48.910;9.478;2023-03-15T04:53:33;98156.91;;;-0.72;94.54
36284;BME280;56085;48.910;9.478;2023-03-15T04:55:58;98154.19;;;-0.72;95.28
36284;BME280;56085;48.910;9.478;2023-03-15T04:58:23;98160.16;;;-0.70;94.64
36284;BME280;56085;48.910;9.478;2023-03-15T05:00:48;98159.94;;;-0.74;94.70
36284;BME280;56085;48.910;9.478;2023-03-15T05:03:13;98155.06;;;-0.77;94.76
36284;BME280;56085;48.910;9.478;2023-03-15T05:05:39;98157.50;;;-0.75;94.96
36284;BME280;56085;48.910;9.478;2023-03-15T05:08:04;98157.78;;;-0.77;94.92
36284;BME280;56085;48.910;9.478;2023-03-15T05:10:29;98151.63;;;-0.82;94.72
36284;BME280;56085;48.910;9.478;2023-03-15T05:12:55;98152.50;;;-0.87;94.58
36284;BME280;56085;48.910;9.478;2023-03-15T05:15:20;98154.41;;;-0.88;95.12
36284;BME280;56085;48.910;9.478;2023-03-15T05:17:46;98149.53;;;-0.91;95.17
36284;BME280;56085;48.910;9.478;2023-03-15T05:20:15;98149.53;;;-0.91;94.73
36284;BME280;56085;48.910;9.478;2023-03-15T05:22:40;98146.81;;;-0.91;95.19
36284;BME280;56085;48.910;9.478;2023-03-15T05:25:06;98154.75;;;-0.94;94.91
36284;BME280;56085;48.910;9.478;2023-03-15T05:27:32;98159.06;;;-0.93;94.46
36284;BME280;56085;48.910;9.478;2023-03-15T05:29:58;98154.44;;;-0.93;94.30
36284;BME280;56085;48.910;9.478;2023-03-15T05:32:26;98164.81;;;-0.95;94.64
36284;BME280;56085;48.910;9.478;2023-03-15T05:34:52;98162.59;;;-0.93;94.49
36284;BME280;56085;48.910;9.478;2023-03-15T05:37:21;98164.50;;;-0.93;95.01
36284;BME280;56085;48.910;9.478;2023-03-15T05:39:46;98167.22;;;-0.93;94.77
36284;BME280;56085;48.910;9.478;2023-03-15T05:42:11;98167.22;;;-0.93;94.78
36284;BME280;56085;48.910;9.478;2023-03-15T05:44:37;98176.16;;;-0.93;95.08
36284;BME280;56085;48.910;9.478;2023-03-15T05:47:02;98163.97;;;-0.95;94.49
36284;BME280;56085;48.910;9.478;2023-03-15T05:49:27;98159.66;;;-0.96;94.60
36284;BME280;56085;48.910;9.478;2023-03-15T05:51:52;98172.41;;;-0.97;95.02
36284;BME280;56085;48.910;9.478;2023-03-15T05:54:18;98174.53;;;-0.94;95.38
36284;BME280;56085;48.910;9.478;2023-03-15T05:56:43;98178.06;;;-0.93;95.33
36284;BME280;56085;48.910;9.478;2023-03-15T05:59:08;98177.78;;;-0.92;95.16
36284;BME280;56085;48.910;9.478;2023-03-15T06:01:33;98179.13;;;-0.89;94.94
36284;BME280;56085;48.910;9.478;2023-03-15T06:03:58;98186.41;;;-0.84;95.27
36284;BME280;56085;48.910;9.478;2023-03-15T06:06:23;98183.09;;;-0.81;95.09
36284;BME280;56085;48.910;9.478;2023-03-15T06:08:49;98179.00;;;-0.79;94.76
36284;BME280;56085;48.910;9.478;2023-03-15T06:11:14;98179.22;;;-0.75;94.55
36284;BME280;56085;48.910;9.478;2023-03-15T06:13:39;98179.44;;;-0.72;94.11
36284;BME280;56085;48.910;9.478;2023-03-15T06:16:04;98186.50;;;-0.71;93.84
36284;BME280;56085;48.910;9.478;2023-03-15T06:18:30;98187.03;;;-0.68;94.37
36284;BME280;56085;48.910;9.478;2023-03-15T06:20:55;98194.34;;;-0.69;94.47
36284;BME280;56085;48.910;9.478;2023-03-15T06:23:20;98200.59;;;-0.68;93.82
36284;BME280;56085;48.910;9.478;2023-03-15T06:25:45;98197.53;;;-0.62;93.82
36284;BME280;56085;48.910;9.478;2023-03-15T06:28:11;98201.56;;;-0.59;94.57
36284;BME280;56085;48.910;9.478;2023-03-15T06:30:36;98204.78;;;-0.57;94.64
36284;BME280;56085;48.910;9.478;2023-03-15T06:33:01;98209.66;;;-0.54;94.45
36284;BME280;56085;48.910;9.478;2023-03-15T06:35:26;98202.03;;;-0.52;94.78
36284;BME280;56085;48.910;9.478;2023-03-15T06:37:52;98207.09;;;-0.45;94.32
36284;BME280;56085;48.910;9.478;2023-03-15T06:40:17;98205.13;;;-0.40;94.62
36284;BME280;56085;48.910;9.478;2023-03-15T06:42:42;98209.41;;;-0.33;94.85
36284;BME280;56085;48.910;9.478;2023-03-15T06:45:08;98205.56;;;-0.32;94.15
36284;BME280;56085;48.910;9.478;2023-03-15T06:47:33;98204.13;;;-0.25;94.18
36284;BME280;56085;48.910;9.478;2023-03-15T06:49:59;98208.44;;;-0.24;93.80
36284;BME280;56085;48.910;9.478;2023-03-15T06:52:24;98206.19;;;-0.16;93.88
36284;BME280;56085;48.910;9.478;2023-03-15T06:54:49;98217.28;;;-0.13;94.35
36284;BME280;56085;48.910;9.478;2023-03-15T06:57:14;98215.31;;;-0.07;93.81
36284;BME280;56085;48.910;9.478;2023-03-15T06:59:40;98208.47;;;-0.05;94.15
36284;BME280;56085;48.910;9.478;2023-03-15T07:02:05;98208.09;;;0.02;94.55
36284;BME280;56085;48.910;9.478;2023-03-15T07:04:31;98211.03;;;0.06;94.30
36284;BME280;56085;48.910;9.478;2023-03-15T07:06:56;98206.03;;;0.13;93.58
36284;BME280;56085;48.910;9.478;2023-03-15T07:09:21;98211.72;;;0.16;94.23
36284;BME280;56085;48.910;9.478;2023-03-15T07:11:46;98217.88;;;0.22;93.78
36284;BME280;56085;48.910;9.478;2023-03-15T07:14:11;98228.97;;;0.26;93.50
36284;BME280;56085;48.910;9.478;2023-03-15T07:16:37;98235.13;;;0.31;93.52
36284;BME280;56085;48.910;9.478;2023-03-15T07:19:02;98238.06;;;0.35;93.59
36284;BME280;56085;48.910;9.478;2023-03-15T07:21:27;98236.69;;;0.38;93.32
36284;BME280;56085;48.910;9.478;2023-03-15T07:23:53;98222.41;;;0.46;93.45
36284;BME280;56085;48.910;9.478;2023-03-15T07:26:18;98224.75;;;0.52;93.86
36284;BME280;56085;48.910;9.478;2023-03-15T07:28:44;98228.72;;;0.60;93.75
36284;BME280;56085;48.910;9.478;2023-03-15T07:31:09;98231.34;;;0.65;92.69
36284;BME280;56085;48.910;9.478;2023-03-15T07:33:35;98225.72;;;0.76;92.28
36284;BME280;56085;48.910;9.478;2023-03-15T07:36:01;98232.91;;;0.85;91.52
36284;BME280;56085;48.910;9.478;2023-03-15T07:38:28;98240.72;;;0.92;90.05
36284;BME280;56085;48.910;9.478;2023-03-15T07:40:53;98241.41;;;0.98;89.11
36284;BME280;56085;48.910;9.478;2023-03-15T07:43:19;98241.75;;;1.10;88.37
36284;BME280;56085;48.910;9.478;2023-03-15T07:45:44;98242.47;;;1.16;87.91
36284;BME280;56085;48.910;9.478;2023-03-15T07:48:09;98242.97;;;1.18;87.72
36284;BME280;56085;48.910;9.478;2023-03-15T07:50:35;98239.84;;;1.25;86.91
36284;BME280;56085;48.910;9.478;2023-03-15T07:53:02;98241.97;;;1.28;85.93
36284;BME280;56085;48.910;9.478;2023-03-15T07:55:27;98242.06;;;1.36;85.89
36284;BME280;56085;48.910;9.478;2023-03-15T07:57:52;98246.00;;;1.44;85.55
36284;BME280;56085;48.910;9.478;2023-03-15T08:00:17;98254.28;;;1.53;84.94
36284;BME280;56085;48.910;9.478;2023-03-15T08:02:43;98256.31;;;1.61;84.04
36284;BME280;56085;48.910;9.478;2023-03-15T08:05:08;98258.72;;;1.77;84.18
36284;BME280;56085;48.910;9.478;2023-03-15T08:07:34;98256.91;;;1.86;83.82
36284;BME280;56085;48.910;9.478;2023-03-15T08:10:00;98254.59;;;1.93;82.50
36284;BME280;56085;48.910;9.478;2023-03-15T08:12:26;98253.66;;;1.98;82.47
36284;BME280;56085;48.910;9.478;2023-03-15T08:14:51;98254.22;;;2.08;82.34
36284;BME280;56085;48.910;9.478;2023-03-15T08:17:17;98255.16;;;2.18;81.73
36284;BME280;56085;48.910;9.478;2023-03-15T08:19:42;98255.75;;;2.15;80.71
36284;BME280;56085;48.910;9.478;2023-03-15T08:22:07;98265.44;;;2.21;80.68
36284;BME280;56085;48.910;9.478;2023-03-15T08:24:33;98264.91;;;2.33;79.79
36284;BME280;56085;48.910;9.478;2023-03-15T08:26:58;98265.28;;;2.40;79.58
36284;BME280;56085;48.910;9.478;2023-03-15T08:29:23;98265.47;;;2.43;78.55
36284;BME280;56085;48.910;9.478;2023-03-15T08:31:49;98265.22;;;2.54;78.47
36284;BME280;56085;48.910;9.478;2023-03-15T08:34:14;98264.50;;;2.62;77.43
36284;BME280;56085;48.910;9.478;2023-03-15T08:36:40;98270.44;;;2.64;77.18
36284;BME280;56085;48.910;9.478;2023-03-15T08:39:05;98277.59;;;2.74;76.68
36284;BME280;56085;48.910;9.478;2023-03-15T08:41:30;98267.03;;;2.81;75.94
36284;BME280;56085;48.910;9.478;2023-03-15T08:43:56;98280.59;;;2.86;75.18
36284;BME280;56085;48.910;9.478;2023-03-15T08:46:21;98282.38;;;2.91;74.74
36284;BME280;56085;48.910;9.478;2023-03-15T08:48:46;98281.13;;;2.97;74.00
36284;BME280;56085;48.910;9.478;2023-03-15T08:51:11;98286.56;;;3.20;73.36
36284;BME280;56085;48.910;9.478;2023-03-15T08:53:37;98281.38;;;3.41;73.26
36284;BME280;56085;48.910;9.478;2023-03-15T08:56:03;98280.03;;;3.61;73.04
36284;BME280;56085;48.910;9.478;2023-03-15T08:58:28;98276.50;;;3.69;72.30
36284;BME280;56085;48.910;9.478;2023-03-15T09:00:54;98280.28;;;3.91;71.85
36284;BME280;56085;48.910;9.478;2023-03-15T09:03:19;98277.91;;;4.07;71.27
36284;BME280;56085;48.910;9.478;2023-03-15T09:05:44;98278.56;;;4.12;70.37
36284;BME280;56085;48.910;9.478;2023-03-15T09:08:10;98285.97;;;4.03;69.02
36284;BME280;56085;48.910;9.478;2023-03-15T09:10:35;98289.69;;;4.16;68.59
36284;BME280;56085;48.910;9.478;2023-03-15T09:13:00;98278.44;;;4.35;67.93
36284;BME280;56085;48.910;9.478;2023-03-15T09:15:25;98290.88;;;4.50;67.40
36284;BME280;56085;48.910;9.478;2023-03-15T09:17:50;98290.56;;;4.69;66.95
36284;BME280;56085;48.910;9.478;2023-03-15T09:20:16;98299.09;;;4.94;65.99
36284;BME280;56085;48.910;9.478;2023-03-15T09:22:43;98286.78;;;5.26;65.66
36284;BME280;56085;48.910;9.478;2023-03-15T09:25:08;98296.28;;;5.37;64.55
36284;BME280;56085;48.910;9.478;2023-03-15T09:27:34;98296.81;;;5.60;63.95
36284;BME280;56085;48.910;9.478;2023-03-15T09:30:00;98288.13;;;5.58;62.84
36284;BME280;56085;48.910;9.478;2023-03-15T09:32:25;98301.03;;;5.67;62.38
36284;BME280;56085;48.910;9.478;2023-03-15T09:34:50;98311.88;;;5.93;61.97
36284;BME280;56085;48.910;9.478;2023-03-15T09:37:15;98298.50;;;5.91;61.30
36284;BME280;56085;48.910;9.478;2023-03-15T09:39:40;98298.94;;;6.02;60.61
36284;BME280;56085;48.910;9.478;2023-03-15T09:42:09;98302.09;;;6.13;60.65
36284;BME280;56085;48.910;9.478;2023-03-15T09:44:47;98306.09;;;6.24;59.58
36284;BME280;56085;48.910;9.478;2023-03-15T09:50:20;98298.06;;;6.40;58.75
36284;BME280;56085;48.910;9.478;2023-03-15T09:52:38;98299.63;;;6.71;58.81
36284;BME280;56085;48.910;9.478;2023-03-15T09:55:12;98297.84;;;6.54;57.49
36284;BME280;56085;48.910;9.478;2023-03-15T09:57:57;98300.38;;;6.80;57.33
36284;BME280;56085;48.910;9.478;2023-03-15T10:00:37;98304.72;;;6.81;57.17
36284;BME280;56085;48.910;9.478;2023-03-15T10:03:03;98299.81;;;6.87;56.39
36284;BME280;56085;48.910;9.478;2023-03-15T10:05:36;98303.97;;;6.93;55.50
36284;BME280;56085;48.910;9.478;2023-03-15T10:08:07;98294.34;;;7.21;55.66
36284;BME280;56085;48.910;9.478;2023-03-15T10:10:34;98296.03;;;7.46;55.24
36284;BME280;56085;48.910;9.478;2023-03-15T10:15:53;98289.22;;;7.31;54.04
36284;BME280;56085;48.910;9.478;2023-03-15T10:18:25;98296.19;;;6.95;53.63
36284;BME280;56085;48.910;9.478;2023-03-15T10:21:03;98296.22;;;6.53;53.27
36284;BME280;56085;48.910;9.478;2023-03-15T10:23:37;98294.59;;;6.31;53.33
36284;BME280;56085;48.910;9.478;2023-03-15T10:26:04;98294.91;;;6.29;52.40
36284;BME280;56085;48.910;9.478;2023-03-15T10:28:32;98302.44;;;6.41;52.34
36284;BME280;56085;48.910;9.478;2023-03-15T10:31:00;98297.19;;;6.27;51.92
36284;BME280;56085;48.910;9.478;2023-03-15T10:33:36;98297.75;;;6.42;52.01
36284;BME280;56085;48.910;9.478;2023-03-15T10:36:02;98304.69;;;6.39;51.52
36284;BME280;56085;48.910;9.478;2023-03-15T10:38:34;98300.38;;;6.59;51.78
36284;BME280;56085;48.910;9.478;2023-03-15T10:40:59;98294.66;;;6.43;51.49
36284;BME280;56085;48.910;9.478;2023-03-15T10:43:25;98294.81;;;6.47;51.08
36284;BME280;56085;48.910;9.478;2023-03-15T10:46:33;98295.88;;;6.55;51.11
36284;BME280;56085;48.910;9.478;2023-03-15T10:48:50;98290.16;;;6.60;50.41
36284;BME280;56085;48.910;9.478;2023-03-15T10:51:19;98300.16;;;6.86;50.61
36284;BME280;56085;48.910;9.478;2023-03-15T10:56:21;98296.22;;;7.41;49.69
36284;BME280;56085;48.910;9.478;2023-03-15T10:58:47;98297.50;;;7.56;50.07
36284;BME280;56085;48.910;9.478;2023-03-15T11:01:20;98290.09;;;7.57;49.77
36284;BME280;56085;48.910;9.478;2023-03-15T11:03:47;98294.63;;;7.40;49.04
36284;BME280;56085;48.910;9.478;2023-03-15T11:06:25;98293.38;;;7.50;48.84
36284;BME280;56085;48.910;9.478;2023-03-15T11:08:51;98306.66;;;7.36;48.62
36284;BME280;56085;48.910;9.478;2023-03-15T11:11:16;98295.56;;;7.11;48.99
36284;BME280;56085;48.910;9.478;2023-03-15T11:13:41;98298.53;;;6.85;49.04
36284;BME280;56085;48.910;9.478;2023-03-15T11:16:19;98289.66;;;6.45;48.63
36284;BME280;56085;48.910;9.478;2023-03-15T11:18:56;98293.47;;;6.23;47.90
36284;BME280;56085;48.910;9.478;2023-03-15T11:21:24;98304.06;;;6.13;48.64
36284;BME280;56085;48.910;9.478;2023-03-15T11:23:52;98303.41;;;5.77;48.69
36284;BME280;56085;48.910;9.478;2023-03-15T11:26:22;98299.88;;;5.68;48.86
36284;BME280;56085;48.910;9.478;2023-03-15T11:28:52;98307.28;;;5.67;49.50
36284;BME280;56085;48.910;9.478;2023-03-15T11:31:19;98311.16;;;5.66;50.04
36284;BME280;56085;48.910;9.478;2023-03-15T11:36:30;98308.84;;;5.30;50.39
36284;BME280;56085;48.910;9.478;2023-03-15T11:38:57;98308.38;;;5.28;50.95
36284;BME280;56085;48.910;9.478;2023-03-15T11:44:07;98299.22;;;5.15;51.22
36284;BME280;56085;48.910;9.478;2023-03-15T11:46:45;98300.84;;;5.07;51.47
36284;BME280;56085;48.910;9.478;2023-03-15T11:51:56;98292.97;;;4.97;51.89
36284;BME280;56085;48.910;9.478;2023-03-15T11:54:21;98303.72;;;5.11;51.78
36284;BME280;56085;48.910;9.478;2023-03-15T11:56:50;98296.44;;;5.23;52.02
36284;BME280;56085;48.910;9.478;2023-03-15T11:59:17;98293.38;;;5.34;52.39
36284;BME280;56085;48.910;9.478;2023-03-15T12:06:58;98298.50;;;5.44;52.60
36284;BME280;56085;48.910;9.478;2023-03-15T12:12:02;98307.06;;;5.34;53.18
36284;BME280;56085;48.910;9.478;2023-03-15T12:14:29;98317.94;;;5.13;53.83
36284;BME280;56085;48.910;9.478;2023-03-15T12:19:39;98312.78;;;4.94;55.31
36284;BME280;56085;48.910;9.478;2023-03-15T12:22:04;98320.19;;;4.93;56.22
36284;BME280;56085;48.910;9.478;2023-03-15T12:24:37;98324.38;;;4.82;56.69
36284;BME280;56085;48.910;9.478;2023-03-15T12:27:04;98326.97;;;4.87;57.30
36284;BME280;56085;48.910;9.478;2023-03-15T12:29:30;98331.78;;;4.81;57.64
36284;BME280;56085;48.910;9.478;2023-03-15T12:31:58;98326.81;;;4.83;58.14
36284;BME280;56085;48.910;9.478;2023-03-15T12:34:33;98335.03;;;4.92;58.76
36284;BME280;56085;48.910;9.478;2023-03-15T12:37:04;98345.00;;;4.79;59.56
36284;BME280;56085;48.910;9.478;2023-03-15T12:39:40;98343.25;;;5.01;60.10
36284;BME280;56085;48.910;9.478;2023-03-15T12:42:10;98343.88;;;4.89;60.85
36284;BME280;56085;48.910;9.478;2023-03-15T12:44:37;98348.72;;;4.75;61.24
36284;BME280;56085;48.910;9.478;2023-03-15T12:47:04;98350.94;;;4.64;61.99
36284;BME280;56085;48.910;9.478;2023-03-15T12:49:31;98352.81;;;4.28;62.58
36284;BME280;56085;48.910;9.478;2023-03-15T12:51:59;98349.25;;;4.19;63.25
36284;BME280;56085;48.910;9.478;2023-03-15T12:57:26;98360.09;;;3.93;65.29
36284;BME280;56085;48.910;9.478;2023-03-15T12:59:57;98367.41;;;3.75;66.20
36284;BME280;56085;48.910;9.478;2023-03-15T13:16:00;98350.13;;;3.97;70.47
36284;BME280;56085;48.910;9.478;2023-03-15T13:18:30;98352.69;;;3.84;70.74
36284;BME280;56085;48.910;9.478;2023-03-15T13:23:32;98355.13;;;3.63;71.62
36284;BME280;56085;48.910;9.478;2023-03-15T13:28:46;98364.38;;;3.76;72.23
36284;BME280;56085;48.910;9.478;2023-03-15T13:31:16;98341.25;;;3.91;72.56
36284;BME280;56085;48.910;9.478;2023-03-15T13:33:50;98345.31;;;3.94;72.06
36284;BME280;56085;48.910;9.478;2023-03-15T13:36:21;98343.41;;;4.03;72.77
36284;BME280;56085;48.910;9.478;2023-03-15T13:38:49;98339.91;;;6.07;72.91
36284;BME280;56085;48.910;9.478;2023-03-15T13:41:22;98345.66;;;15.56;68.25
36284;BME280;56085;48.910;9.478;2023-03-15T13:43:48;98335.03;;;19.19;61.77
36284;BME280;56085;48.910;9.478;2023-03-15T13:46:16;98326.38;;;19.38;57.18
36284;BME280;56085;48.910;9.478;2023-03-15T13:48:42;98333.81;;;21.44;53.93
36284;BME280;56085;48.910;9.478;2023-03-15T13:51:11;98322.22;;;18.39;51.70
36284;BME280;56085;48.910;9.478;2023-03-15T13:53:41;98312.56;;;14.59;50.38
36284;BME280;56085;48.910;9.478;2023-03-15T13:56:06;98310.34;;;11.77;50.17
36284;BME280;56085;48.910;9.478;2023-03-15T13:58:32;98308.06;;;11.60;49.97
36284;BME280;56085;48.910;9.478;2023-03-15T14:00:59;98317.09;;;11.57;49.99
36284;BME280;56085;48.910;9.478;2023-03-15T14:03:25;98306.16;;;10.14;49.89